createdAt,value
2022-11-05T00:00:14.829Z,2.47
2022-11-05T00:02:59.680Z,2.33
2022-11-05T00:05:45.021Z,3.08
2022-11-05T00:08:30.116Z,2.92
2022-11-05T00:10:56.525Z,2.63
2022-11-05T00:13:41.358Z,2.25
2022-11-05T00:16:26.753Z,3.13
2022-11-05T00:19:08.126Z,2.63
2022-11-05T00:21:55.280Z,3.20
2022-11-05T00:24:40.656Z,2.80
2022-11-05T00:27:07.674Z,2.40
2022-11-05T00:29:34.586Z,2.83
2022-11-05T00:32:01.370Z,2.47
2022-11-05T00:34:27.676Z,2.13
2022-11-05T00:36:54.091Z,2.67
2022-11-05T00:39:20.425Z,2.78
2022-11-05T00:42:06.720Z,2.70
2022-11-05T00:44:51.369Z,2.22
2022-11-05T00:47:36.037Z,2.22
2022-11-05T00:50:02.432Z,1.90
2022-11-05T00:52:47.144Z,2.10
2022-11-05T00:55:13.514Z,2.22
2022-11-05T00:57:39.857Z,1.90
2022-11-05T01:00:06.736Z,2.00
2022-11-05T01:09:25.895Z,2.15
2022-11-05T01:11:52.220Z,2.80
2022-11-05T01:14:18.669Z,2.70
2022-11-05T01:16:45.431Z,2.90
2022-11-05T01:19:11.883Z,2.53
2022-11-05T01:21:38.276Z,2.92
2022-11-05T01:24:04.856Z,3.42
2022-11-05T01:26:31.299Z,3.20
2022-11-05T01:29:00.417Z,3.97
2022-11-05T01:31:29.008Z,3.85
2022-11-05T01:33:55.412Z,4.45
2022-11-05T01:36:21.779Z,4.43
2022-11-05T01:38:48.171Z,5.20
2022-11-05T01:41:14.487Z,5.22
2022-11-05T01:43:59.858Z,5.90
2022-11-05T01:46:40.853Z,5.03
2022-11-05T01:49:17.449Z,4.22
2022-11-05T01:51:45.671Z,5.00
2022-11-05T01:54:16.460Z,4.88
2022-11-05T01:56:54.235Z,4.35
2022-11-05T01:59:26.369Z,5.15
2022-11-05T02:01:53.754Z,4.22
2022-11-05T02:04:46.680Z,4.53
2022-11-05T02:07:13.763Z,5.80
2022-11-05T02:09:52.971Z,5.40
2022-11-05T02:12:20.918Z,5.15
2022-11-05T02:14:47.205Z,5.45
2022-11-05T02:17:19.474Z,6.20
2022-11-05T02:20:13.507Z,5.60
2022-11-05T02:23:04.845Z,5.57
2022-11-05T02:25:49.967Z,6.82
2022-11-05T02:28:28.429Z,6.37
2022-11-05T02:31:10.014Z,6.93
2022-11-05T02:33:36.325Z,6.50
2022-11-05T02:36:30.250Z,6.70
2022-11-05T02:39:05.547Z,6.90
2022-11-05T02:41:59.220Z,6.75
2022-11-05T02:45:02.542Z,6.90
2022-11-05T02:47:44.221Z,7.63
2022-11-05T02:50:20.956Z,6.88
2022-11-05T02:52:54.279Z,7.85
2022-11-05T02:55:23.597Z,7.30
2022-11-05T02:57:49.914Z,8.80
2022-11-05T03:00:40.834Z,8.38
2022-11-05T03:03:18.402Z,8.30
2022-11-05T03:06:07.691Z,8.90
2022-11-05T03:08:52.907Z,7.47
2022-11-05T03:11:23.055Z,8.30
2022-11-05T03:13:59.043Z,8.88
2022-11-05T03:16:25.306Z,7.80
2022-11-05T03:19:17.842Z,9.07
2022-11-05T03:21:50.925Z,8.85
2022-11-05T03:24:23.158Z,9.13
2022-11-05T03:27:02.474Z,9.45
2022-11-05T03:29:35.207Z,8.98
2022-11-05T03:32:04.773Z,9.32
2022-11-05T03:34:36.513Z,9.57
2022-11-05T03:37:05.154Z,9.40
2022-11-05T03:39:48.603Z,9.73
2022-11-05T03:42:18.047Z,9.15
2022-11-05T03:44:56.646Z,9.95
2022-11-05T03:47:28.806Z,9.77
2022-11-05T03:50:17.559Z,10.45
2022-11-05T03:53:07.224Z,9.93
2022-11-05T03:55:42.357Z,9.15
2022-11-05T03:58:10.314Z,9.57
2022-11-05T04:00:38.102Z,9.30
2022-11-05T04:03:04.422Z,8.05
2022-11-05T04:05:31.110Z,7.90
2022-11-05T04:08:15.782Z,8.23
2022-11-05T04:11:02.098Z,6.63
2022-11-05T04:13:29.006Z,6.43
2022-11-05T04:16:14.784Z,6.47
2022-11-05T04:18:42.080Z,5.55
2022-11-05T04:21:28.380Z,5.28
2022-11-05T04:24:10.695Z,5.32
2022-11-05T04:26:43.507Z,4.88
2022-11-05T04:29:28.505Z,3.90
2022-11-05T04:31:55.417Z,3.75
2022-11-05T04:34:24.849Z,3.85
2022-11-05T04:36:52.997Z,3.40
2022-11-05T04:39:20.566Z,3.60
2022-11-05T04:41:48.464Z,3.55
2022-11-05T04:44:16.196Z,3.47
2022-11-05T04:46:42.510Z,3.65
2022-11-05T04:49:08.902Z,3.70
2022-11-05T04:51:35.239Z,4.40
2022-11-05T04:54:01.607Z,4.40
2022-11-05T04:56:27.899Z,4.80
2022-11-05T04:58:54.236Z,4.25
2022-11-05T05:01:22.634Z,3.40
2022-11-05T05:03:50.694Z,3.35
2022-11-05T05:06:18.018Z,3.50
2022-11-05T05:08:44.742Z,3.40
2022-11-05T05:11:13.435Z,3.13
2022-11-05T05:13:39.998Z,3.15
2022-11-05T05:16:08.522Z,2.92
2022-11-05T05:18:35.325Z,2.10
2022-11-05T05:21:20.842Z,2.17
2022-11-05T05:23:48.401Z,1.70
2022-11-05T05:26:16.091Z,1.83
2022-11-05T05:28:42.434Z,2.92
2022-11-05T05:31:09.185Z,3.50
2022-11-05T05:33:35.729Z,3.15
2022-11-05T05:36:05.825Z,3.20
2022-11-05T05:38:34.818Z,2.70
2022-11-05T05:41:01.165Z,2.30
2022-11-05T05:43:32.187Z,2.33
2022-11-05T05:46:04.849Z,2.20
2022-11-05T05:48:31.298Z,2.00
2022-11-05T05:51:09.770Z,2.22
2022-11-05T05:53:36.843Z,2.00
2022-11-05T05:56:03.769Z,1.98
2022-11-05T05:58:38.886Z,2.10
2022-11-05T06:01:08.039Z,2.13
2022-11-05T06:03:34.693Z,1.77
2022-11-05T06:06:03.234Z,1.73
2022-11-05T06:08:30.060Z,2.80
2022-11-05T06:10:56.778Z,2.15
2022-11-05T06:13:23.181Z,2.15
2022-11-05T06:15:49.702Z,2.00
2022-11-05T06:18:16.019Z,1.92
2022-11-05T06:20:42.379Z,2.50
2022-11-05T06:23:09.205Z,2.60
2022-11-05T06:25:40.915Z,2.72
2022-11-05T06:28:07.603Z,2.97
2022-11-05T06:30:33.891Z,3.53
2022-11-05T06:33:06.341Z,3.60
2022-11-05T06:35:32.924Z,3.92
2022-11-05T06:38:01.048Z,4.38
2022-11-05T06:40:28.285Z,4.50
2022-11-05T06:42:55.206Z,4.45
2022-11-05T06:45:21.922Z,5.25
2022-11-05T06:47:48.250Z,5.45
2022-11-05T06:50:14.578Z,6.00
2022-11-05T06:52:41.318Z,4.60
2022-11-05T06:55:08.237Z,5.00
2022-11-05T06:57:37.440Z,5.45
2022-11-05T07:00:08.071Z,5.10
2022-11-05T07:02:34.661Z,6.28
2022-11-05T07:05:00.940Z,5.97
2022-11-05T07:07:27.281Z,6.50
2022-11-05T07:09:53.630Z,5.32
2022-11-05T07:12:19.932Z,6.63
2022-11-05T07:14:46.315Z,5.88
2022-11-05T07:17:12.670Z,6.07
2022-11-05T07:19:39.688Z,5.90
2022-11-05T07:22:06.007Z,6.22
2022-11-05T07:24:32.410Z,6.43
2022-11-05T07:26:58.726Z,6.10
2022-11-05T07:29:25.045Z,6.40
2022-11-05T07:31:51.414Z,6.68
2022-11-05T07:34:17.780Z,6.43
2022-11-05T07:36:44.059Z,7.57
2022-11-05T07:39:10.371Z,6.57
2022-11-05T07:41:36.669Z,6.40
2022-11-05T07:44:03.833Z,7.63
2022-11-05T07:46:30.402Z,7.13
2022-11-05T07:48:56.718Z,7.10
2022-11-05T07:51:23.043Z,6.82
2022-11-05T07:53:49.382Z,7.65
2022-11-05T07:56:16.283Z,7.65
2022-11-05T07:58:42.916Z,7.43
2022-11-05T08:01:09.337Z,6.25
2022-11-05T08:03:35.973Z,6.75
2022-11-05T08:06:02.370Z,7.50
2022-11-05T08:08:29.878Z,6.90
2022-11-05T08:11:03.606Z,7.22
2022-11-05T08:13:29.949Z,7.00
2022-11-05T08:15:57.496Z,6.05
2022-11-05T08:18:23.850Z,7.35
2022-11-05T08:20:50.153Z,6.97
2022-11-05T08:23:16.522Z,7.47
2022-11-05T08:25:42.893Z,7.18
2022-11-05T08:28:12.743Z,6.88
2022-11-05T08:30:39.081Z,6.60
2022-11-05T08:33:14.989Z,5.35
2022-11-05T08:35:41.642Z,5.85
2022-11-05T08:38:13.454Z,5.63
2022-11-05T08:40:40.683Z,5.10
2022-11-05T08:43:09.757Z,5.28
2022-11-05T08:45:38.302Z,5.60
2022-11-05T08:48:11.205Z,5.03
2022-11-05T08:50:38.691Z,5.03
2022-11-05T08:53:05.527Z,5.82
2022-11-05T08:55:32.142Z,5.07
2022-11-05T08:58:00.615Z,5.50
2022-11-05T09:00:30.416Z,4.97
2022-11-05T09:03:01.048Z,5.10
2022-11-05T09:05:28.268Z,5.50
2022-11-05T09:08:00.521Z,5.30
2022-11-05T09:10:28.353Z,5.55
2022-11-05T09:12:54.685Z,5.70
2022-11-05T09:15:21.087Z,5.93
2022-11-05T09:17:47.398Z,5.82
2022-11-05T09:20:13.832Z,5.43
2022-11-05T09:22:43.378Z,5.47
2022-11-05T09:25:10.340Z,4.72
2022-11-05T09:27:36.683Z,4.20
2022-11-05T09:30:05.133Z,4.50
2022-11-05T09:32:32.446Z,5.07
2022-11-05T09:35:00.983Z,5.50
2022-11-05T09:37:28.199Z,5.15
2022-11-05T09:39:55.071Z,4.45
2022-11-05T09:42:27.182Z,4.78
2022-11-05T09:45:01.393Z,4.15
2022-11-05T09:47:32.735Z,4.88
2022-11-05T09:50:02.384Z,4.10
2022-11-05T09:52:31.405Z,4.70
2022-11-05T09:54:58.069Z,4.03
2022-11-05T09:57:28.822Z,3.80
2022-11-05T09:59:58.746Z,4.03
2022-11-05T10:02:35.207Z,3.65
2022-11-05T10:05:10.220Z,3.70
2022-11-05T10:08:06.210Z,4.30
2022-11-05T10:10:44.393Z,4.22
2022-11-05T10:13:23.669Z,3.90
2022-11-05T10:15:59.729Z,3.88
2022-11-05T10:18:31.441Z,3.90
2022-11-05T10:20:58.163Z,4.43
2022-11-05T10:23:26.290Z,4.13
2022-11-05T10:26:00.480Z,3.42
2022-11-05T10:28:29.580Z,3.42
2022-11-05T10:30:59.419Z,3.22
2022-11-05T10:33:31.994Z,3.30
2022-11-05T10:36:06.114Z,3.38
2022-11-05T10:38:33.323Z,3.33
2022-11-05T10:41:10.017Z,3.88
2022-11-05T10:43:48.552Z,3.40
2022-11-05T10:46:14.813Z,2.70
2022-11-05T10:48:57.486Z,3.25
2022-11-05T10:51:24.108Z,3.08
2022-11-05T10:54:01.596Z,3.00
2022-11-05T10:56:39.841Z,3.15
2022-11-05T10:59:22.730Z,2.92
2022-11-05T11:02:14.744Z,3.10
2022-11-05T11:04:41.309Z,4.60
2022-11-05T11:07:21.955Z,3.00
2022-11-05T11:09:50.010Z,3.10
2022-11-05T11:12:25.933Z,2.97
2022-11-05T11:15:14.566Z,2.60
2022-11-05T11:17:41.301Z,2.95
2022-11-05T11:20:32.688Z,3.10
2022-11-05T11:23:04.920Z,3.08
2022-11-05T11:25:39.335Z,2.85
2022-11-05T11:28:07.306Z,2.80
2022-11-05T11:30:34.985Z,2.70
2022-11-05T11:33:07.977Z,2.85
2022-11-05T11:35:37.768Z,2.58
2022-11-05T11:38:06.598Z,2.75
2022-11-05T11:40:36.260Z,3.20
2022-11-05T11:43:30.150Z,2.20
2022-11-05T11:46:02.279Z,3.03
2022-11-05T11:48:35.141Z,3.08
2022-11-05T11:51:19.799Z,2.40
2022-11-05T11:53:48.226Z,2.45
2022-11-05T11:56:20.089Z,2.50
2022-11-05T11:58:52.025Z,2.75
2022-11-05T12:01:40.251Z,2.08
2022-11-05T12:04:23.657Z,5.28
2022-11-05T12:07:08.451Z,2.78
2022-11-05T12:09:41.520Z,2.05
2022-11-05T12:12:14.074Z,1.52
2022-11-05T12:15:02.231Z,1.98
2022-11-05T12:17:51.982Z,1.60
2022-11-05T12:21:03.329Z,1.73
2022-11-05T12:23:29.626Z,1.80
2022-11-05T12:26:02.947Z,2.10
2022-11-05T12:28:36.229Z,2.15
2022-11-05T12:31:05.490Z,1.85
2022-11-05T12:33:47.949Z,1.83
2022-11-05T12:36:31.058Z,1.50
2022-11-05T12:39:09.761Z,1.33
2022-11-05T12:41:55.251Z,1.83
2022-11-05T12:44:36.948Z,1.50
2022-11-05T12:47:25.300Z,1.58
2022-11-05T12:49:59.808Z,1.60
2022-11-05T12:53:01.556Z,1.50
2022-11-05T12:55:34.850Z,1.77
2022-11-05T12:58:10.288Z,1.50
2022-11-05T13:03:27.321Z,1.48
2022-11-05T13:06:07.313Z,1.50
2022-11-05T13:08:59.598Z,1.63
2022-11-05T13:11:36.029Z,1.70
2022-11-05T13:14:11.408Z,2.13
2022-11-05T13:19:12.794Z,2.70
2022-11-05T13:21:42.175Z,1.70
2022-11-05T13:24:17.670Z,1.90
2022-11-05T13:26:53.677Z,1.65
2022-11-05T13:29:34.232Z,1.40
2022-11-05T13:32:41.124Z,1.38
2022-11-05T13:35:15.786Z,1.42
2022-11-05T13:38:04.780Z,1.27
2022-11-05T13:41:03.854Z,1.30
2022-11-05T13:43:38.086Z,1.63
2022-11-05T13:46:22.819Z,1.80
2022-11-05T13:49:06.750Z,1.25
2022-11-05T13:51:52.245Z,1.40
2022-11-05T13:54:33.484Z,2.53
2022-11-05T13:57:18.704Z,1.65
2022-11-05T13:59:54.126Z,1.50
2022-11-05T14:02:24.927Z,1.48
2022-11-05T14:05:01.507Z,1.40
2022-11-05T14:07:32.132Z,1.00
2022-11-05T14:10:05.417Z,1.35
2022-11-05T14:12:35.859Z,0.95
2022-11-05T14:15:08.459Z,1.20
2022-11-05T14:17:56.335Z,1.20
2022-11-05T14:20:26.416Z,1.40
2022-11-05T14:22:53.204Z,1.20
2022-11-05T14:25:19.466Z,1.23
2022-11-05T14:27:48.342Z,1.17
2022-11-05T14:30:41.404Z,1.20
2022-11-05T14:33:40.120Z,1.10
2022-11-05T14:36:21.506Z,1.10
2022-11-05T14:38:53.283Z,1.30
2022-11-05T14:41:21.142Z,0.90
2022-11-05T14:43:58.655Z,1.00
2022-11-05T14:46:39.265Z,1.13
2022-11-05T14:49:09.690Z,1.23
2022-11-05T14:51:40.193Z,1.23
2022-11-05T14:54:15.513Z,1.00
2022-11-05T14:56:59.300Z,1.50
2022-11-05T14:59:25.600Z,1.05
2022-11-05T15:01:57.560Z,2.10
2022-11-05T15:04:35.827Z,1.50
2022-11-05T15:07:02.066Z,1.10
2022-11-05T15:09:46.556Z,3.67
2022-11-05T15:12:24.438Z,0.90
2022-11-05T15:15:21.277Z,2.45
2022-11-05T15:18:28.069Z,1.45
2022-11-05T15:20:58.274Z,4.43
2022-11-05T15:23:29.573Z,2.20
2022-11-05T15:26:18.701Z,1.60
2022-11-05T15:28:48.723Z,1.75
2022-11-05T15:31:15.010Z,1.77
2022-11-05T15:33:43.976Z,1.75
2022-11-05T15:36:23.880Z,1.88
2022-11-05T15:39:15.040Z,2.00
2022-11-05T15:41:36.614Z,2.28
2022-11-05T15:44:03.159Z,2.13
2022-11-05T15:46:30.183Z,2.30
2022-11-05T15:49:06.911Z,2.70
2022-11-05T15:51:35.497Z,2.53
2022-11-05T15:56:55.713Z,3.30
2022-11-05T15:59:24.929Z,3.30
2022-11-05T16:01:56.590Z,4.30
2022-11-05T16:04:26.651Z,4.30
2022-11-05T16:07:00.102Z,6.20
2022-11-05T16:09:32.729Z,8.45
2022-11-05T16:12:17.992Z,8.68
2022-11-05T16:14:55.837Z,5.07
2022-11-05T16:17:24.835Z,4.57
2022-11-05T16:19:52.010Z,5.30
2022-11-05T16:22:18.781Z,5.53
2022-11-05T16:24:46.061Z,4.95
2022-11-05T16:27:19.883Z,4.03
2022-11-05T16:29:55.741Z,4.68
2022-11-05T16:32:30.793Z,5.47
2022-11-05T16:35:03.912Z,4.85
2022-11-05T16:37:37.496Z,5.85
2022-11-05T16:40:16.451Z,6.13
2022-11-05T16:42:43.508Z,6.93
2022-11-05T16:45:13.251Z,4.95
2022-11-05T16:47:40.334Z,5.78
2022-11-05T16:50:17.589Z,5.35
2022-11-05T16:52:46.052Z,5.75
2022-11-05T16:55:14.184Z,5.45
2022-11-05T16:57:43.647Z,6.10
2022-11-05T17:00:16.998Z,6.30
2022-11-05T17:02:44.061Z,5.75
2022-11-05T17:05:24.394Z,6.35
2022-11-05T17:07:51.422Z,5.97
2022-11-05T17:10:18.286Z,6.50
2022-11-05T17:12:45.374Z,6.60
2022-11-05T17:15:37.781Z,6.80
2022-11-05T17:18:05.426Z,7.70
2022-11-05T17:20:43.900Z,16.73
2022-11-05T17:23:12.572Z,11.82
2022-11-05T17:25:41.104Z,14.07
2022-11-05T17:28:08.671Z,10.48
2022-11-05T17:30:36.441Z,7.25
2022-11-05T17:33:03.275Z,8.98
2022-11-05T17:35:29.821Z,8.40
2022-11-05T17:37:56.119Z,7.53
2022-11-05T17:40:23.491Z,9.35
2022-11-05T17:42:51.068Z,7.38
2022-11-05T17:45:17.617Z,8.88
2022-11-05T17:47:44.388Z,7.85
2022-11-05T17:50:13.837Z,6.85
2022-11-05T17:52:40.618Z,8.50
2022-11-05T17:55:16.027Z,7.93
2022-11-05T17:57:44.498Z,8.45
2022-11-05T18:00:12.873Z,9.93
2022-11-05T18:02:39.850Z,9.88
2022-11-05T18:05:07.045Z,6.72
2022-11-05T18:07:34.022Z,7.00
2022-11-05T18:10:00.401Z,7.72
2022-11-05T18:12:26.729Z,6.65
2022-11-05T18:14:53.055Z,8.45
2022-11-05T18:17:19.503Z,8.82
2022-11-05T18:19:45.810Z,9.80
2022-11-05T18:22:12.195Z,13.15
2022-11-05T18:24:38.505Z,8.45
2022-11-05T18:27:04.886Z,8.63
2022-11-05T18:29:31.246Z,9.00
2022-11-05T18:31:57.604Z,8.00
2022-11-05T18:34:24.162Z,9.43
2022-11-05T18:36:55.999Z,9.35
2022-11-05T18:39:22.773Z,11.85
2022-11-05T18:41:49.085Z,7.88
2022-11-05T18:44:16.602Z,8.90
2022-11-05T18:46:57.516Z,7.70
2022-11-05T18:49:25.014Z,8.43
2022-11-05T18:51:51.403Z,13.95
2022-11-05T18:54:17.820Z,10.90
2022-11-05T18:56:47.050Z,16.65
2022-11-05T18:59:36.022Z,16.50
2022-11-05T19:02:03.161Z,16.02
2022-11-05T19:04:30.510Z,19.45
2022-11-05T19:07:00.217Z,14.65
2022-11-05T19:09:30.668Z,16.90
2022-11-05T19:11:57.120Z,14.50
2022-11-05T19:14:23.632Z,8.20
2022-11-05T19:16:50.055Z,7.60
2022-11-05T19:19:16.402Z,10.63
2022-11-05T19:21:42.818Z,11.05
2022-11-05T19:24:10.113Z,10.73
2022-11-05T19:26:36.475Z,9.30
2022-11-05T19:29:03.574Z,10.18
2022-11-05T19:31:32.611Z,8.32
2022-11-05T19:33:59.404Z,9.20
2022-11-05T19:36:25.771Z,8.50
2022-11-05T19:39:00.883Z,8.10
2022-11-05T19:41:27.487Z,8.07
2022-11-05T19:43:54.965Z,8.27
2022-11-05T19:46:22.885Z,8.02
2022-11-05T19:48:50.078Z,8.10
2022-11-05T19:51:22.771Z,10.10
2022-11-05T19:53:49.458Z,7.93
2022-11-05T19:56:21.406Z,7.68
2022-11-05T19:58:48.739Z,7.18
2022-11-05T20:01:16.255Z,8.88
2022-11-05T20:03:42.718Z,7.15
2022-11-05T20:06:15.213Z,8.65
2022-11-05T20:08:59.731Z,7.78
2022-11-05T20:11:29.143Z,6.35
2022-11-05T20:13:56.611Z,6.57
2022-11-05T20:16:26.094Z,7.43
2022-11-05T20:18:52.917Z,6.40
2022-11-05T20:21:19.400Z,7.22
2022-11-05T20:23:46.548Z,6.93
2022-11-05T20:26:13.502Z,7.13
2022-11-05T20:28:42.581Z,7.43
2022-11-05T20:31:13.482Z,7.75
2022-11-05T20:33:41.226Z,7.13
2022-11-05T20:36:11.898Z,7.43
2022-11-05T20:38:38.322Z,7.28
2022-11-05T20:41:09.327Z,7.50
2022-11-05T20:43:36.390Z,7.78
2022-11-05T20:46:03.294Z,7.85
2022-11-05T20:48:33.927Z,7.68
2022-11-05T20:51:05.493Z,7.18
2022-11-05T20:53:31.822Z,7.45
2022-11-05T20:55:58.101Z,7.55
2022-11-05T20:58:24.468Z,7.32
2022-11-05T21:00:54.016Z,7.43
2022-11-05T21:03:20.887Z,6.55
2022-11-05T21:05:48.246Z,6.97
2022-11-05T21:08:15.614Z,7.72
2022-11-05T21:10:45.913Z,6.85
2022-11-05T21:13:16.444Z,7.25
2022-11-05T21:15:49.192Z,7.07
2022-11-05T21:18:16.985Z,6.82
2022-11-05T21:20:44.558Z,6.65
2022-11-05T21:23:11.759Z,6.97
2022-11-05T21:25:39.607Z,6.57
2022-11-05T21:28:06.895Z,6.97
2022-11-05T21:30:34.602Z,6.97
2022-11-05T21:33:00.903Z,6.55
2022-11-05T21:35:27.377Z,7.07
2022-11-05T21:37:53.694Z,7.05
2022-11-05T21:40:20.055Z,6.90
2022-11-05T21:42:46.330Z,7.20
2022-11-05T21:45:12.614Z,6.68
2022-11-05T21:47:38.904Z,6.72
2022-11-05T21:50:05.629Z,6.53
2022-11-05T21:52:50.669Z,6.00
2022-11-05T21:55:36.016Z,6.67
2022-11-05T21:58:28.402Z,6.65
2022-11-05T22:00:54.717Z,7.90
2022-11-05T22:03:21.032Z,6.95
2022-11-05T22:05:47.412Z,6.97
2022-11-05T22:08:14.104Z,7.55
2022-11-05T22:10:40.658Z,7.50
2022-11-05T22:13:06.977Z,7.85
2022-11-05T22:15:33.295Z,7.18
2022-11-05T22:17:59.641Z,7.30
2022-11-05T22:20:26.021Z,7.43
2022-11-05T22:22:53.676Z,7.45
2022-11-05T22:25:20.189Z,8.38
2022-11-05T22:27:46.482Z,7.20
2022-11-05T22:30:13.813Z,7.50
2022-11-05T22:32:40.418Z,7.80
2022-11-05T22:35:07.446Z,7.30
2022-11-05T22:37:33.754Z,7.97
2022-11-05T22:40:00.021Z,7.90
2022-11-05T22:42:26.506Z,7.65
2022-11-05T22:44:52.842Z,7.45
2022-11-05T22:47:19.156Z,7.80
2022-11-05T22:49:45.861Z,7.15
2022-11-05T22:52:12.139Z,8.00
2022-11-05T22:54:39.540Z,8.38
2022-11-05T22:57:06.090Z,8.48
2022-11-05T22:59:32.770Z,8.30
2022-11-05T23:01:59.209Z,7.55
2022-11-05T23:04:25.863Z,8.73
2022-11-05T23:07:10.711Z,8.20
2022-11-05T23:09:57.085Z,9.02
2022-11-05T23:12:32.782Z,8.82
2022-11-05T23:15:00.870Z,8.10
2022-11-05T23:17:46.083Z,9.38
2022-11-05T23:20:41.557Z,8.75
2022-11-05T23:23:30.448Z,8.33
2022-11-05T23:25:58.525Z,9.68
2022-11-05T23:28:25.316Z,9.68
2022-11-05T23:31:10.338Z,9.13
2022-11-05T23:33:36.862Z,9.40
2022-11-05T23:36:22.400Z,9.40
2022-11-05T23:38:48.751Z,8.52
2022-11-05T23:41:33.451Z,9.48
2022-11-05T23:44:18.070Z,8.77
2022-11-05T23:47:02.852Z,9.35
2022-11-05T23:49:29.164Z,8.82
2022-11-05T23:51:55.509Z,9.25
2022-11-05T23:54:22.386Z,7.95
2022-11-05T23:56:48.690Z,8.55
2022-11-05T23:59:15.000Z,9.00
